createdAt,value
2019-01-18T00:00:34.471Z,0.00
2019-01-18T00:01:34.483Z,0.00
2019-01-18T00:02:34.494Z,0.00
2019-01-18T00:03:34.514Z,0.00
2019-01-18T00:04:34.525Z,0.00
2019-01-18T00:05:34.554Z,0.00
2019-01-18T00:06:34.557Z,0.00
2019-01-18T00:07:34.567Z,0.00
2019-01-18T00:08:34.615Z,0.00
2019-01-18T00:09:34.591Z,0.00
2019-01-18T00:10:34.607Z,0.00
2019-01-18T00:11:34.634Z,0.00
2019-01-18T00:12:34.647Z,0.00
2019-01-18T00:13:34.649Z,0.00
2019-01-18T00:14:34.672Z,0.00
2019-01-18T00:15:34.683Z,0.00
2019-01-18T00:16:34.687Z,0.00
2019-01-18T00:17:34.716Z,0.00
2019-01-18T00:18:34.716Z,0.00
2019-01-18T00:19:34.749Z,0.00
2019-01-18T00:20:34.746Z,0.00
2019-01-18T00:21:34.754Z,0.00
2019-01-18T00:22:34.778Z,0.00
2019-01-18T00:23:34.781Z,0.00
2019-01-18T00:24:34.800Z,0.00
2019-01-18T00:25:34.818Z,0.00
2019-01-18T00:26:34.828Z,0.00
2019-01-18T00:27:34.841Z,0.00
2019-01-18T00:28:34.858Z,0.00
2019-01-18T00:29:34.872Z,0.00
2019-01-18T00:30:34.897Z,0.00
2019-01-18T00:31:34.908Z,0.00
2019-01-18T00:32:34.910Z,0.00
2019-01-18T00:33:34.921Z,0.00
2019-01-18T00:34:34.947Z,0.00
2019-01-18T00:35:34.963Z,0.00
2019-01-18T00:36:34.961Z,0.00
2019-01-18T00:37:34.983Z,0.00
2019-01-18T00:38:35.008Z,0.00
2019-01-18T00:39:35.028Z,0.00
2019-01-18T00:40:35.018Z,0.00
2019-01-18T00:41:35.039Z,0.00
2019-01-18T00:42:35.049Z,0.00
2019-01-18T00:43:35.056Z,0.00
2019-01-18T00:44:35.089Z,0.00
2019-01-18T00:45:35.087Z,0.00
2019-01-18T00:46:35.105Z,0.00
2019-01-18T00:47:35.118Z,0.00
2019-01-18T00:48:35.133Z,0.00
2019-01-18T00:49:35.144Z,0.00
2019-01-18T00:50:35.155Z,0.00
2019-01-18T00:51:35.171Z,0.00
2019-01-18T00:52:35.186Z,0.00
2019-01-18T00:53:35.200Z,0.00
2019-01-18T00:54:35.209Z,0.00
2019-01-18T00:55:35.224Z,0.00
2019-01-18T00:56:35.234Z,0.00
2019-01-18T00:57:35.254Z,0.00
2019-01-18T00:58:35.262Z,0.00
2019-01-18T00:59:36.380Z,0.00
2019-01-18T01:00:35.298Z,0.00
2019-01-18T01:01:35.309Z,0.00
2019-01-18T01:02:35.316Z,0.00
2019-01-18T01:03:35.332Z,0.00
2019-01-18T01:04:35.342Z,0.00
2019-01-18T01:05:35.361Z,0.00
2019-01-18T01:06:35.373Z,0.00
2019-01-18T01:07:35.394Z,0.00
2019-01-18T01:08:35.400Z,0.00
2019-01-18T01:09:35.415Z,0.00
2019-01-18T01:10:35.427Z,0.00
2019-01-18T01:11:35.444Z,0.00
2019-01-18T01:12:35.454Z,0.00
2019-01-18T01:13:35.471Z,0.00
2019-01-18T01:14:35.486Z,0.00
2019-01-18T01:15:35.497Z,0.00
2019-01-18T01:16:35.508Z,0.00
2019-01-18T01:17:35.523Z,0.00
2019-01-18T01:18:35.537Z,0.00
2019-01-18T01:19:35.557Z,0.00
2019-01-18T01:20:35.564Z,0.00
2019-01-18T01:21:35.581Z,0.00
2019-01-18T01:22:35.596Z,0.00
2019-01-18T01:23:35.619Z,0.00
2019-01-18T01:24:35.620Z,0.00
2019-01-18T01:25:35.636Z,0.00
2019-01-18T01:26:35.645Z,0.00
2019-01-18T01:27:35.665Z,0.00
2019-01-18T01:28:35.673Z,0.00
2019-01-18T01:29:35.693Z,0.00
2019-01-18T01:30:35.707Z,0.00
2019-01-18T01:31:35.717Z,0.00
2019-01-18T01:32:35.731Z,0.00
2019-01-18T01:33:35.747Z,0.00
2019-01-18T01:34:35.760Z,0.00
2019-01-18T01:35:35.773Z,0.00
2019-01-18T01:36:35.793Z,0.00
2019-01-18T01:37:35.798Z,0.00
2019-01-18T01:38:35.811Z,0.00
2019-01-18T01:39:35.832Z,0.00
2019-01-18T01:40:35.843Z,0.00
2019-01-18T01:41:35.852Z,0.00
2019-01-18T01:42:35.871Z,0.00
2019-01-18T01:43:35.885Z,0.00
2019-01-18T01:44:35.897Z,0.00
2019-01-18T01:45:35.913Z,0.00
2019-01-18T01:46:35.924Z,0.00
2019-01-18T01:47:35.937Z,0.00
2019-01-18T01:48:35.957Z,0.00
2019-01-18T01:49:35.971Z,0.00
2019-01-18T01:50:35.978Z,0.00
2019-01-18T01:51:35.999Z,0.00
2019-01-18T01:52:36.010Z,0.00
2019-01-18T01:53:36.027Z,0.00
2019-01-18T01:54:36.036Z,0.00
2019-01-18T01:55:36.049Z,0.00
2019-01-18T01:56:36.063Z,0.00
2019-01-18T01:57:36.080Z,0.00
2019-01-18T01:58:36.086Z,0.00
2019-01-18T01:59:36.109Z,0.00
2019-01-18T02:00:36.121Z,0.00
2019-01-18T02:01:36.126Z,0.00
2019-01-18T02:02:36.157Z,0.00
2019-01-18T02:03:36.151Z,0.00
2019-01-18T02:04:36.166Z,0.00
2019-01-18T02:05:36.189Z,0.00
2019-01-18T02:06:36.193Z,0.00
2019-01-18T02:07:36.206Z,0.00
2019-01-18T02:08:36.219Z,0.00
2019-01-18T02:09:36.236Z,0.00
2019-01-18T02:10:36.261Z,0.00
2019-01-18T02:11:36.273Z,0.00
2019-01-18T02:12:36.273Z,0.00
2019-01-18T02:13:36.287Z,0.00
2019-01-18T02:14:36.299Z,0.00
2019-01-18T02:15:36.318Z,0.00
2019-01-18T02:16:36.332Z,0.00
2019-01-18T02:17:36.342Z,0.00
2019-01-18T02:18:36.372Z,0.00
2019-01-18T02:19:36.368Z,0.00
2019-01-18T02:20:36.385Z,0.00
2019-01-18T02:21:36.392Z,0.00
2019-01-18T02:22:36.409Z,0.00
2019-01-18T02:23:36.422Z,0.00
2019-01-18T02:24:36.440Z,0.00
2019-01-18T02:25:36.449Z,0.00
2019-01-18T02:26:36.460Z,0.00
2019-01-18T02:27:36.474Z,0.00
2019-01-18T02:28:36.488Z,0.00
2019-01-18T02:29:36.504Z,0.00
2019-01-18T02:30:36.536Z,0.00
2019-01-18T02:31:36.530Z,0.00
2019-01-18T02:32:36.543Z,0.00
2019-01-18T02:33:36.554Z,0.00
2019-01-18T02:34:36.567Z,0.00
2019-01-18T02:35:36.583Z,0.00
2019-01-18T02:36:36.592Z,0.00
2019-01-18T02:37:36.610Z,0.00
2019-01-18T02:38:36.617Z,0.00
2019-01-18T02:39:36.634Z,0.00
2019-01-18T02:40:36.661Z,0.00
2019-01-18T02:41:36.658Z,0.00
2019-01-18T02:42:36.678Z,0.00
2019-01-18T02:43:36.695Z,0.00
2019-01-18T02:44:36.706Z,0.00
2019-01-18T02:45:36.717Z,0.00
2019-01-18T02:46:36.739Z,0.00
2019-01-18T02:47:36.738Z,0.00
2019-01-18T02:48:36.759Z,0.00
2019-01-18T02:49:36.762Z,0.00
2019-01-18T02:50:36.786Z,0.00
2019-01-18T02:51:36.796Z,0.00
2019-01-18T02:52:36.811Z,0.00
2019-01-18T02:53:36.818Z,0.00
2019-01-18T02:54:36.829Z,0.00
2019-01-18T02:55:36.847Z,0.00
2019-01-18T02:56:36.858Z,0.00
2019-01-18T02:57:36.874Z,0.00
2019-01-18T02:58:36.881Z,0.00
2019-01-18T02:59:36.900Z,0.00
2019-01-18T03:00:36.909Z,0.00
2019-01-18T03:01:36.928Z,0.00
2019-01-18T03:02:36.937Z,0.00
2019-01-18T03:03:36.947Z,0.00
2019-01-18T03:04:36.967Z,0.00
2019-01-18T03:05:36.974Z,0.00
2019-01-18T03:06:36.988Z,0.00
2019-01-18T03:07:37.004Z,0.00
2019-01-18T03:08:37.013Z,0.00
2019-01-18T03:09:37.038Z,0.00
2019-01-18T03:10:37.046Z,0.00
2019-01-18T03:11:37.052Z,0.00
2019-01-18T03:12:37.067Z,0.00
2019-01-18T03:13:37.076Z,0.00
2019-01-18T03:14:37.091Z,0.00
2019-01-18T03:15:37.112Z,0.00
2019-01-18T03:16:37.123Z,0.00
2019-01-18T03:17:37.129Z,0.00
2019-01-18T03:18:37.138Z,0.00
2019-01-18T03:19:37.157Z,0.00
2019-01-18T03:20:37.166Z,0.00
2019-01-18T03:21:37.184Z,0.00
2019-01-18T03:22:37.193Z,0.00
2019-01-18T03:23:37.206Z,0.00
2019-01-18T03:24:37.219Z,0.00
2019-01-18T03:25:37.235Z,0.00
2019-01-18T03:26:37.242Z,0.00
2019-01-18T03:27:37.253Z,0.00
2019-01-18T03:28:37.268Z,0.00
2019-01-18T03:29:37.294Z,0.00
2019-01-18T03:30:37.295Z,0.00
2019-01-18T03:31:37.307Z,0.00
2019-01-18T03:32:37.325Z,0.00
2019-01-18T03:33:37.339Z,0.00
2019-01-18T03:34:37.345Z,0.00
2019-01-18T03:35:37.359Z,0.00
2019-01-18T03:36:37.370Z,0.00
2019-01-18T03:37:37.383Z,0.00
2019-01-18T03:38:37.398Z,0.00
2019-01-18T03:39:37.421Z,0.00
2019-01-18T03:40:37.432Z,0.00
2019-01-18T03:41:37.438Z,0.00
2019-01-18T03:42:37.449Z,0.00
2019-01-18T03:43:37.460Z,0.00
2019-01-18T03:44:37.487Z,0.00
2019-01-18T03:45:37.493Z,0.00
2019-01-18T03:46:37.503Z,0.00
2019-01-18T03:47:37.510Z,0.00
2019-01-18T03:48:37.528Z,0.00
2019-01-18T03:49:37.540Z,0.00
2019-01-18T03:50:37.564Z,0.00
2019-01-18T03:51:37.563Z,0.00
2019-01-18T03:52:37.582Z,0.00
2019-01-18T03:53:37.592Z,0.00
2019-01-18T03:54:37.614Z,0.00
2019-01-18T03:55:37.623Z,0.00
2019-01-18T03:56:37.628Z,0.00
2019-01-18T03:57:37.648Z,0.00
2019-01-18T03:58:37.723Z,0.00
2019-01-18T03:59:37.670Z,0.00
2019-01-18T04:00:37.680Z,0.00
2019-01-18T04:01:37.704Z,0.00
2019-01-18T04:02:37.705Z,0.00
2019-01-18T04:03:37.716Z,0.00
2019-01-18T04:04:37.741Z,0.00
2019-01-18T04:05:37.744Z,0.00
2019-01-18T04:06:37.768Z,0.00
2019-01-18T04:07:37.770Z,0.00
2019-01-18T04:08:37.782Z,0.00
2019-01-18T04:09:37.794Z,0.00
2019-01-18T04:10:37.810Z,0.00
2019-01-18T04:11:37.834Z,0.00
2019-01-18T04:12:37.855Z,0.00
2019-01-18T04:13:37.851Z,0.00
2019-01-18T04:14:37.859Z,0.00
2019-01-18T04:15:37.874Z,0.00
2019-01-18T04:16:37.884Z,0.00
2019-01-18T04:17:37.896Z,0.00
2019-01-18T04:18:37.911Z,0.00
2019-01-18T04:19:37.931Z,0.00
2019-01-18T04:20:37.944Z,0.00
2019-01-18T04:21:37.950Z,0.00
2019-01-18T04:22:37.981Z,0.00
2019-01-18T04:23:37.983Z,0.00
2019-01-18T04:24:38.000Z,0.00
2019-01-18T04:25:38.009Z,0.00
2019-01-18T04:26:38.015Z,0.00
2019-01-18T04:27:38.039Z,0.00
2019-01-18T04:28:38.042Z,0.00
2019-01-18T04:29:38.057Z,0.00
2019-01-18T04:30:38.081Z,0.00
2019-01-18T04:31:38.081Z,0.00
2019-01-18T04:32:38.098Z,0.00
2019-01-18T04:33:38.107Z,0.00
2019-01-18T04:34:38.125Z,0.00
2019-01-18T04:35:38.139Z,0.00
2019-01-18T04:36:38.150Z,0.00
2019-01-18T04:37:38.165Z,0.00
2019-01-18T04:38:38.173Z,0.00
2019-01-18T04:39:38.187Z,0.00
2019-01-18T04:40:38.202Z,0.00
2019-01-18T04:41:38.228Z,0.00
2019-01-18T04:42:38.220Z,0.00
2019-01-18T04:43:38.241Z,0.00
2019-01-18T04:44:38.264Z,0.00
2019-01-18T04:45:38.278Z,0.00
2019-01-18T04:46:38.275Z,0.00
2019-01-18T04:47:38.296Z,0.00
2019-01-18T04:48:38.303Z,0.00
2019-01-18T04:49:38.309Z,0.00
2019-01-18T04:50:38.335Z,0.00
2019-01-18T04:51:38.348Z,0.00
2019-01-18T04:52:38.349Z,0.00
2019-01-18T04:53:38.366Z,0.00
2019-01-18T04:54:38.378Z,0.00
2019-01-18T04:55:38.389Z,0.00
2019-01-18T04:56:38.403Z,0.00
2019-01-18T04:57:38.414Z,0.00
2019-01-18T04:58:38.429Z,0.00
2019-01-18T04:59:38.468Z,0.00
2019-01-18T05:00:40.763Z,0.00
2019-01-18T05:01:38.486Z,0.00
2019-01-18T05:02:38.485Z,0.00
2019-01-18T05:03:38.504Z,0.00
2019-01-18T05:04:38.512Z,0.00
2019-01-18T05:05:38.529Z,0.00
2019-01-18T05:06:38.542Z,0.00
2019-01-18T05:07:38.560Z,0.00
2019-01-18T05:08:38.563Z,0.00
2019-01-18T05:09:38.569Z,0.00
2019-01-18T05:10:38.582Z,0.00
2019-01-18T05:11:38.615Z,0.00
2019-01-18T05:12:38.605Z,0.00
2019-01-18T05:13:38.620Z,0.00
2019-01-18T05:14:38.635Z,0.00
2019-01-18T05:15:38.648Z,0.00
2019-01-18T05:16:38.663Z,0.00
2019-01-18T05:17:38.674Z,0.00
2019-01-18T05:18:38.682Z,0.00
2019-01-18T05:19:38.700Z,0.00
2019-01-18T05:20:38.709Z,0.00
2019-01-18T05:21:38.729Z,0.00
2019-01-18T05:22:38.730Z,0.00
2019-01-18T05:23:38.747Z,0.00
2019-01-18T05:24:38.753Z,0.00
2019-01-18T05:25:38.770Z,0.00
2019-01-18T05:26:38.779Z,0.00
2019-01-18T05:27:38.815Z,0.00
2019-01-18T05:28:38.808Z,0.00
2019-01-18T05:29:38.839Z,0.00
2019-01-18T05:30:38.833Z,0.00
2019-01-18T05:31:38.857Z,0.00
2019-01-18T05:32:38.856Z,0.00
2019-01-18T05:33:38.868Z,0.00
2019-01-18T05:34:38.888Z,0.00
2019-01-18T05:35:38.902Z,0.00
2019-01-18T05:36:38.907Z,0.00
2019-01-18T05:37:38.918Z,0.00
2019-01-18T05:38:38.938Z,0.00
2019-01-18T05:39:38.950Z,0.00
2019-01-18T05:40:38.958Z,0.00
2019-01-18T05:41:38.972Z,0.00
2019-01-18T05:42:38.981Z,0.00
2019-01-18T05:43:39.003Z,0.00
2019-01-18T05:44:39.006Z,0.00
2019-01-18T05:45:39.025Z,0.00
2019-01-18T05:46:39.037Z,0.00
2019-01-18T05:47:39.054Z,0.00
2019-01-18T05:48:39.052Z,0.00
2019-01-18T05:49:39.111Z,0.00
2019-01-18T05:50:39.085Z,0.00
2019-01-18T05:51:39.090Z,0.00
2019-01-18T05:52:39.103Z,0.00
2019-01-18T05:53:39.131Z,0.00
2019-01-18T05:54:39.140Z,0.00
2019-01-18T05:55:39.148Z,0.00
2019-01-18T05:56:39.159Z,0.00
2019-01-18T05:57:39.164Z,0.00
2019-01-18T05:58:39.189Z,0.00
2019-01-18T05:59:39.194Z,0.00
2019-01-18T06:00:39.205Z,0.00
2019-01-18T06:01:39.218Z,0.00
2019-01-18T06:02:39.229Z,0.00
2019-01-18T06:03:39.247Z,0.00
2019-01-18T06:04:39.256Z,0.00
2019-01-18T06:05:39.268Z,0.00
2019-01-18T06:06:39.284Z,0.00
2019-01-18T06:07:39.302Z,0.00
2019-01-18T06:08:39.308Z,0.00
2019-01-18T06:09:39.323Z,0.00
2019-01-18T06:10:39.388Z,0.00
2019-01-18T06:11:39.343Z,0.00
2019-01-18T06:12:39.394Z,0.00
2019-01-18T06:13:39.406Z,0.00
2019-01-18T06:14:39.385Z,0.00
2019-01-18T06:15:40.502Z,0.00
2019-01-18T06:16:39.395Z,0.00
2019-01-18T06:17:39.413Z,0.00
2019-01-18T06:18:39.423Z,0.00
2019-01-18T06:19:39.438Z,0.00
2019-01-18T06:20:39.459Z,0.00
2019-01-18T06:21:39.476Z,0.00
2019-01-18T06:22:39.479Z,0.00
2019-01-18T06:23:39.493Z,0.00
2019-01-18T06:24:39.503Z,0.00
2019-01-18T06:25:39.517Z,0.00
2019-01-18T06:26:39.523Z,0.00
2019-01-18T06:27:39.531Z,0.00
2019-01-18T06:28:39.558Z,0.00
2019-01-18T06:29:39.560Z,0.00
2019-01-18T06:30:39.630Z,0.00
2019-01-18T06:31:39.576Z,0.00
2019-01-18T06:32:39.611Z,0.00
2019-01-18T06:33:39.613Z,4.00
2019-01-18T06:34:39.617Z,4.00
2019-01-18T06:35:39.631Z,4.00
2019-01-18T06:36:39.639Z,4.00
2019-01-18T06:37:39.660Z,0.00
2019-01-18T06:38:39.666Z,0.00
2019-01-18T06:39:39.705Z,0.00
2019-01-18T06:40:39.699Z,4.00
2019-01-18T06:41:39.702Z,4.00
2019-01-18T06:42:39.712Z,4.00
2019-01-18T06:43:39.747Z,4.00
2019-01-18T06:44:39.744Z,4.00
2019-01-18T06:45:39.754Z,4.00
2019-01-18T06:46:39.767Z,8.00
2019-01-18T06:47:39.774Z,8.00
2019-01-18T06:48:39.785Z,8.00
2019-01-18T06:49:39.801Z,12.00
2019-01-18T06:50:39.822Z,12.00
2019-01-18T06:51:39.822Z,12.00
2019-01-18T06:52:39.853Z,16.00
2019-01-18T06:53:39.846Z,16.00
2019-01-18T06:54:39.863Z,20.00
2019-01-18T06:55:39.916Z,24.00
2019-01-18T06:56:39.883Z,28.00
2019-01-18T06:57:39.927Z,32.00
2019-01-18T06:58:39.909Z,36.00
2019-01-18T06:59:39.918Z,40.00
2019-01-18T07:00:39.943Z,44.00
2019-01-18T07:01:39.954Z,52.00
2019-01-18T07:02:39.957Z,60.00
2019-01-18T07:03:39.970Z,68.00
2019-01-18T07:04:41.437Z,80.00
2019-01-18T07:05:40.001Z,92.00
2019-01-18T07:06:40.006Z,100.00
2019-01-18T07:07:40.010Z,116.00
2019-01-18T07:08:40.025Z,128.00
2019-01-18T07:09:40.047Z,144.00
2019-01-18T07:10:40.048Z,160.00
2019-01-18T07:11:40.066Z,176.00
2019-01-18T07:12:40.081Z,196.00
2019-01-18T07:13:40.095Z,216.00
2019-01-18T07:14:40.097Z,236.00
2019-01-18T07:15:40.118Z,260.00
2019-01-18T07:16:40.125Z,288.00
2019-01-18T07:17:40.150Z,312.00
2019-01-18T07:18:40.182Z,340.00
2019-01-18T07:19:40.159Z,364.00
2019-01-18T07:20:40.171Z,396.00
2019-01-18T07:21:40.188Z,428.00
2019-01-18T07:22:40.196Z,456.00
2019-01-18T07:23:40.197Z,492.00
2019-01-18T07:24:40.217Z,528.00
2019-01-18T07:25:40.229Z,560.00
2019-01-18T07:26:40.238Z,596.00
2019-01-18T07:27:40.245Z,636.00
2019-01-18T07:28:40.265Z,668.00
2019-01-18T07:29:40.279Z,708.00
2019-01-18T07:30:40.282Z,748.00
2019-01-18T07:31:40.296Z,788.00
2019-01-18T07:32:40.319Z,832.00
2019-01-18T07:33:40.323Z,876.00
2019-01-18T07:34:40.347Z,916.00
2019-01-18T07:35:40.359Z,964.00
2019-01-18T07:36:40.360Z,1004.00
2019-01-18T07:37:40.389Z,1052.00
2019-01-18T07:38:40.380Z,1096.00
2019-01-18T07:39:40.405Z,1140.00
2019-01-18T07:40:40.414Z,1188.00
2019-01-18T07:41:40.416Z,1232.00
2019-01-18T07:42:40.426Z,1280.00
2019-01-18T07:43:40.443Z,1328.00
2019-01-18T07:44:40.465Z,1364.00
2019-01-18T07:45:40.467Z,1400.00
2019-01-18T07:46:40.519Z,1444.00
2019-01-18T07:47:40.510Z,1492.00
2019-01-18T07:48:40.496Z,1540.00
2019-01-18T07:49:40.532Z,1592.00
2019-01-18T07:50:40.531Z,1648.00
2019-01-18T07:51:40.534Z,1704.00
2019-01-18T07:52:40.595Z,1768.00
2019-01-18T07:53:40.558Z,1808.00
2019-01-18T07:54:40.577Z,1868.00
2019-01-18T07:55:40.602Z,1968.00
2019-01-18T07:56:40.610Z,2064.00
2019-01-18T07:57:40.613Z,2104.00
2019-01-18T07:58:40.615Z,2156.00
2019-01-18T07:59:40.637Z,2180.00
2019-01-18T08:00:40.677Z,2240.00
2019-01-18T08:01:40.672Z,2376.00
2019-01-18T08:02:40.666Z,2476.00
2019-01-18T08:03:40.684Z,2492.00
2019-01-18T08:04:40.694Z,2504.00
2019-01-18T08:05:40.701Z,2492.00
2019-01-18T08:06:40.717Z,2492.00
2019-01-18T08:07:40.731Z,2404.00
2019-01-18T08:08:40.751Z,2256.00
2019-01-18T08:09:40.745Z,2572.00
2019-01-18T08:10:40.760Z,2516.00
2019-01-18T08:11:40.780Z,2468.00
2019-01-18T08:12:40.787Z,2628.00
2019-01-18T08:13:40.801Z,2820.00
2019-01-18T08:14:40.813Z,2952.00
2019-01-18T08:15:40.818Z,2960.00
2019-01-18T08:16:40.836Z,3012.00
2019-01-18T08:17:40.864Z,3272.00
2019-01-18T08:18:40.859Z,3232.00
2019-01-18T08:19:40.878Z,3104.00
2019-01-18T08:20:40.889Z,3000.00
2019-01-18T08:21:40.895Z,2704.00
2019-01-18T08:22:40.913Z,2744.00
2019-01-18T08:23:40.937Z,2824.00
2019-01-18T08:24:40.932Z,3032.00
2019-01-18T08:25:40.947Z,3316.00
2019-01-18T08:26:40.961Z,3600.00
2019-01-18T08:27:41.023Z,3848.00
2019-01-18T08:28:40.984Z,4104.00
2019-01-18T08:29:40.991Z,4000.00
2019-01-18T08:30:41.010Z,3872.00
2019-01-18T08:31:41.024Z,3732.00
2019-01-18T08:32:41.033Z,3412.00
2019-01-18T08:33:41.041Z,3232.00
2019-01-18T08:34:41.060Z,3180.00
2019-01-18T08:35:41.070Z,3196.00
2019-01-18T08:36:41.084Z,3284.00
2019-01-18T08:37:41.097Z,3372.00
2019-01-18T08:38:41.144Z,3600.00
2019-01-18T08:39:41.122Z,3804.00
2019-01-18T08:40:41.133Z,3896.00
2019-01-18T08:41:41.190Z,3972.00
2019-01-18T08:42:41.172Z,3880.00
2019-01-18T08:43:41.180Z,3788.00
2019-01-18T08:44:41.207Z,3948.00
2019-01-18T08:45:41.198Z,4204.00
2019-01-18T08:46:41.218Z,4928.00
2019-01-18T08:47:41.226Z,5272.00
2019-01-18T08:48:41.254Z,5264.00
2019-01-18T08:49:41.254Z,5012.00
2019-01-18T08:50:41.276Z,4924.00
2019-01-18T08:51:41.286Z,4860.00
2019-01-18T08:52:41.306Z,4852.00
2019-01-18T08:53:41.303Z,4820.00
2019-01-18T08:54:41.313Z,4684.00
2019-01-18T08:55:41.331Z,4560.00
2019-01-18T08:56:41.376Z,4308.00
2019-01-18T08:57:41.377Z,4248.00
2019-01-18T08:58:41.394Z,4276.00
2019-01-18T08:59:41.386Z,4212.00
2019-01-18T09:00:41.398Z,4192.00
2019-01-18T09:01:41.408Z,4172.00
2019-01-18T09:02:41.447Z,4204.00
2019-01-18T09:03:41.459Z,4064.00
2019-01-18T09:04:41.455Z,3972.00
2019-01-18T09:05:41.465Z,3852.00
2019-01-18T09:06:41.478Z,3876.00
2019-01-18T09:07:41.490Z,4096.00
2019-01-18T09:08:41.495Z,4528.00
2019-01-18T09:09:41.512Z,5268.00
2019-01-18T09:10:41.533Z,5672.00
2019-01-18T09:11:41.549Z,6124.00
2019-01-18T09:12:41.571Z,6236.00
2019-01-18T09:13:41.580Z,6064.00
2019-01-18T09:14:41.589Z,6136.00
2019-01-18T09:15:41.599Z,6184.00
2019-01-18T09:16:41.615Z,6228.00
2019-01-18T09:17:41.625Z,6440.00
2019-01-18T09:18:41.646Z,6372.00
2019-01-18T09:19:41.649Z,6272.00
2019-01-18T09:20:41.678Z,6256.00
2019-01-18T09:21:41.678Z,6148.00
2019-01-18T09:22:41.686Z,5836.00
2019-01-18T09:23:41.702Z,5924.00
2019-01-18T09:24:41.725Z,6116.00
2019-01-18T09:25:41.741Z,6092.00
2019-01-18T09:26:41.745Z,5772.00
2019-01-18T09:27:41.757Z,5364.00
2019-01-18T09:28:41.779Z,5080.00
2019-01-18T09:29:41.787Z,4880.00
2019-01-18T09:30:41.805Z,4740.00
2019-01-18T09:31:42.602Z,5092.00
2019-01-18T09:32:41.829Z,5076.00
2019-01-18T09:33:41.848Z,5060.00
2019-01-18T09:34:41.866Z,5000.00
2019-01-18T09:35:41.876Z,4644.00
2019-01-18T09:36:41.879Z,4416.00
2019-01-18T09:37:41.907Z,4800.00
2019-01-18T09:38:41.931Z,4876.00
2019-01-18T09:39:41.926Z,4836.00
2019-01-18T09:40:41.935Z,5064.00
2019-01-18T09:41:41.974Z,5228.00
2019-01-18T09:42:41.982Z,5272.00
2019-01-18T09:43:41.987Z,5212.00
2019-01-18T09:44:41.995Z,5176.00
2019-01-18T09:45:42.012Z,5164.00
2019-01-18T09:46:42.035Z,5124.00
2019-01-18T09:47:42.034Z,5052.00
2019-01-18T09:48:42.055Z,5008.00
2019-01-18T09:49:42.850Z,4968.00
2019-01-18T09:50:42.104Z,4976.00
2019-01-18T09:51:42.093Z,5008.00
2019-01-18T09:52:42.106Z,5020.00
2019-01-18T09:53:42.117Z,4996.00
2019-01-18T09:54:42.157Z,4964.00
2019-01-18T09:55:42.152Z,4996.00
2019-01-18T09:56:42.168Z,5000.00
2019-01-18T09:57:42.180Z,4964.00
2019-01-18T09:58:42.191Z,4960.00
2019-01-18T09:59:42.203Z,4876.00
2019-01-18T10:00:42.222Z,4780.00
2019-01-18T10:01:42.246Z,4684.00
2019-01-18T10:02:42.261Z,4756.00
2019-01-18T10:03:42.261Z,4776.00
2019-01-18T10:04:42.292Z,4784.00
2019-01-18T10:05:42.290Z,4816.00
2019-01-18T10:06:42.309Z,4800.00
2019-01-18T10:07:42.319Z,4916.00
2019-01-18T10:08:42.343Z,4940.00
2019-01-18T10:09:42.350Z,4896.00
2019-01-18T10:10:42.365Z,4920.00
2019-01-18T10:11:42.378Z,4988.00
2019-01-18T10:12:42.397Z,4424.00
2019-01-18T10:13:42.405Z,5172.00
2019-01-18T10:14:42.426Z,4872.00
2019-01-18T10:15:42.435Z,4820.00
2019-01-18T10:16:42.447Z,5056.00
2019-01-18T10:17:42.461Z,4752.00
2019-01-18T10:18:42.479Z,4836.00
2019-01-18T10:19:42.491Z,4876.00
2019-01-18T10:20:42.506Z,5052.00
2019-01-18T10:21:42.528Z,5520.00
2019-01-18T10:22:42.542Z,4984.00
2019-01-18T10:23:42.570Z,5388.00
2019-01-18T10:24:42.576Z,4780.00
2019-01-18T10:25:42.582Z,5416.00
2019-01-18T10:26:42.606Z,5404.00
2019-01-18T10:27:42.609Z,5120.00
2019-01-18T10:28:42.619Z,5192.00
2019-01-18T10:29:42.647Z,4948.00
2019-01-18T10:30:42.654Z,4764.00
2019-01-18T10:31:42.669Z,4868.00
2019-01-18T10:32:42.679Z,5092.00
2019-01-18T10:33:42.701Z,5208.00
2019-01-18T10:34:42.712Z,5144.00
2019-01-18T10:35:42.725Z,4860.00
2019-01-18T10:36:42.754Z,4864.00
2019-01-18T10:37:42.788Z,4888.00
2019-01-18T10:38:42.771Z,4944.00
2019-01-18T10:39:42.781Z,4732.00
2019-01-18T10:40:42.798Z,4320.00
2019-01-18T10:41:42.812Z,4612.00
2019-01-18T10:42:42.856Z,5096.00
2019-01-18T10:43:42.844Z,5132.00
2019-01-18T10:44:42.856Z,4956.00
2019-01-18T10:45:42.874Z,4820.00
2019-01-18T10:46:42.898Z,5220.00
2019-01-18T10:47:42.893Z,4488.00
2019-01-18T10:48:42.910Z,4748.00
2019-01-18T10:49:42.924Z,4204.00
2019-01-18T10:50:42.938Z,4272.00
2019-01-18T10:51:42.953Z,4096.00
2019-01-18T10:52:42.970Z,4688.00
2019-01-18T10:53:42.982Z,4432.00
2019-01-18T10:54:42.997Z,4896.00
2019-01-18T10:55:43.019Z,4248.00
2019-01-18T10:56:43.031Z,4412.00
2019-01-18T10:57:43.043Z,4168.00
2019-01-18T10:58:43.064Z,5068.00
2019-01-18T10:59:43.072Z,5000.00
2019-01-18T11:00:43.094Z,4396.00
2019-01-18T11:01:43.099Z,4820.00
2019-01-18T11:02:43.118Z,4856.00
2019-01-18T11:03:43.125Z,4732.00
2019-01-18T11:04:43.144Z,4820.00
2019-01-18T11:05:43.155Z,4872.00
2019-01-18T11:06:43.181Z,4824.00
2019-01-18T11:07:43.187Z,4712.00
2019-01-18T11:08:43.201Z,4864.00
2019-01-18T11:09:43.214Z,4588.00
2019-01-18T11:10:43.221Z,4792.00
2019-01-18T11:11:43.239Z,4824.00
2019-01-18T11:12:43.269Z,4796.00
2019-01-18T11:13:43.276Z,4736.00
2019-01-18T11:14:43.286Z,4776.00
2019-01-18T11:15:43.305Z,4728.00
2019-01-18T11:16:43.323Z,4612.00
2019-01-18T11:17:43.328Z,4760.00
2019-01-18T11:18:43.342Z,4824.00
2019-01-18T11:19:43.359Z,4800.00
2019-01-18T11:20:43.380Z,4744.00
2019-01-18T11:21:43.399Z,4800.00
2019-01-18T11:22:43.407Z,4808.00
2019-01-18T11:23:43.418Z,4776.00
2019-01-18T11:24:43.449Z,4788.00
2019-01-18T11:25:43.446Z,4784.00
2019-01-18T11:26:43.466Z,4780.00
2019-01-18T11:27:43.490Z,4792.00
2019-01-18T11:28:43.507Z,4800.00
2019-01-18T11:29:43.510Z,4856.00
2019-01-18T11:30:43.523Z,4856.00
2019-01-18T11:31:43.551Z,4840.00
2019-01-18T11:32:43.563Z,4732.00
2019-01-18T11:33:43.570Z,4852.00
2019-01-18T11:34:43.581Z,4836.00
2019-01-18T11:35:43.606Z,4868.00
2019-01-18T11:36:43.607Z,4848.00
2019-01-18T11:37:43.635Z,4816.00
2019-01-18T11:38:43.639Z,4760.00
2019-01-18T11:39:43.658Z,4812.00
2019-01-18T11:40:43.672Z,4772.00
2019-01-18T11:41:43.686Z,4684.00
2019-01-18T11:42:43.711Z,4748.00
2019-01-18T11:43:43.719Z,4844.00
2019-01-18T11:44:43.727Z,4816.00
2019-01-18T11:45:43.754Z,4848.00
2019-01-18T11:46:43.772Z,4792.00
2019-01-18T11:47:43.778Z,4792.00
2019-01-18T11:48:43.792Z,4792.00
2019-01-18T11:49:43.803Z,4752.00
2019-01-18T11:50:43.825Z,4760.00
2019-01-18T11:51:43.840Z,4688.00
2019-01-18T11:52:43.862Z,4768.00
2019-01-18T11:53:43.882Z,4728.00
2019-01-18T11:54:44.137Z,4752.00
2019-01-18T11:55:43.906Z,4744.00
2019-01-18T11:56:43.915Z,4760.00
2019-01-18T11:57:43.937Z,4804.00
2019-01-18T11:58:43.941Z,4768.00
2019-01-18T11:59:43.957Z,4764.00
2019-01-18T12:00:43.974Z,4788.00
2019-01-18T12:01:43.986Z,4784.00
2019-01-18T12:02:44.011Z,4800.00
2019-01-18T12:03:44.028Z,4796.00
2019-01-18T12:04:44.047Z,4800.00
2019-01-18T12:05:44.046Z,4800.00
2019-01-18T12:06:44.066Z,4768.00
2019-01-18T12:07:44.082Z,4760.00
2019-01-18T12:08:44.096Z,4772.00
2019-01-18T12:09:44.120Z,4776.00
2019-01-18T12:10:44.124Z,4780.00
2019-01-18T12:11:44.150Z,4772.00
2019-01-18T12:12:44.187Z,4792.00
2019-01-18T12:13:44.176Z,4812.00
2019-01-18T12:14:44.183Z,4796.00
2019-01-18T12:15:44.203Z,4800.00
2019-01-18T12:16:44.219Z,4808.00
2019-01-18T12:17:44.224Z,4816.00
2019-01-18T12:18:44.246Z,4828.00
2019-01-18T12:19:44.260Z,4820.00
2019-01-18T12:20:44.279Z,4828.00
2019-01-18T12:21:44.303Z,4840.00
2019-01-18T12:22:44.306Z,4852.00
2019-01-18T12:23:44.318Z,4856.00
2019-01-18T12:24:44.342Z,4852.00
2019-01-18T12:25:44.356Z,4792.00
2019-01-18T12:26:44.377Z,4868.00
2019-01-18T12:27:44.377Z,4868.00
2019-01-18T12:28:44.393Z,4872.00
2019-01-18T12:29:44.412Z,4880.00
2019-01-18T12:30:44.425Z,4880.00
2019-01-18T12:31:44.444Z,4872.00
2019-01-18T12:32:44.472Z,4860.00
2019-01-18T12:33:44.477Z,4860.00
2019-01-18T12:34:44.518Z,4840.00
2019-01-18T12:35:44.509Z,4824.00
2019-01-18T12:36:44.534Z,4812.00
2019-01-18T12:37:44.538Z,4812.00
2019-01-18T12:38:44.548Z,4804.00
2019-01-18T12:39:44.568Z,4796.00
2019-01-18T12:40:44.587Z,4780.00
2019-01-18T12:41:44.608Z,4768.00
2019-01-18T12:42:44.618Z,4740.00
2019-01-18T12:43:44.639Z,4732.00
2019-01-18T12:44:44.668Z,4712.00